Time;durP1;ratioP1;P1;durP2;ratioP2;P2;SDS_P1;SDS_P2;PMS_P1;PMS_P2;Temp;Humidity;BMP_temperature;BMP_pressure;BME280_temperature;BME280_humidity;BME280_pressure;Samples;Min_cycle;Max_cycle;Signal;HPM_P1;HPM_P2
2022/01/03 00:01:46;;;;;;;;;;;10.90;99.90;;;;;;5092603;28;20328;-64
2022/01/03 00:04:13;;;;;;;;;;;10.90;99.90;;;;;;5095259;27;20388;-63
2022/01/03 00:06:38;;;;;;;;;;;10.90;99.90;;;;;;5091171;28;19999;-63
2022/01/03 00:09:04;;;;;;;;;;;10.90;99.90;;;;;;5095653;28;20019;-63
2022/01/03 00:11:30;;;;;;;;;;;10.90;99.90;;;;;;5100172;27;19919;-63
2022/01/03 00:13:55;;;;;;;;;;;10.90;99.90;;;;;;5096539;27;19973;-63
2022/01/03 00:16:23;;;;;;;;;;;10.90;99.90;;;;;;5100765;27;20286;-63
2022/01/03 00:18:48;;;;;;;;;;;10.90;99.90;;;;;;5095139;28;19928;-63
2022/01/03 00:21:15;;;;;;;;;;;10.80;99.90;;;;;;5099078;27;19916;-63
2022/01/03 00:23:47;;;;;;;;;;;10.80;99.90;;;;;;5098117;28;20540;-63
2022/01/03 00:26:13;;;;;;;;;;;10.80;99.90;;;;;;5095724;28;20327;-63
2022/01/03 00:28:39;;;;;;;;;;;10.80;99.90;;;;;;5093744;28;19969;-63
2022/01/03 00:31:05;;;;;;;;;;;10.80;99.90;;;;;;5097941;28;19915;-63
2022/01/03 00:33:31;;;;;;;;;;;10.80;99.90;;;;;;5099717;28;20255;-63
2022/01/03 00:36:02;;;;;;;;;;;10.80;99.90;;;;;;5102159;27;19926;-63
2022/01/03 00:38:33;;;;;;;;;;;10.90;99.90;;;;;;5099313;28;20862;-63
2022/01/03 00:40:59;;;;;;;;;;;10.80;99.90;;;;;;5096103;28;19980;-63
2022/01/03 00:43:25;;;;;;;;;;;10.90;99.90;;;;;;5098847;28;19920;-63
2022/01/03 00:45:51;;;;;;;;;;;10.80;99.90;;;;;;5098082;28;19988;-63
2022/01/03 00:48:17;;;;;;;;;;;10.90;99.90;;;;;;5101215;27;19916;-63
2022/01/03 00:50:43;;;;;;;;;;;10.80;99.90;;;;;;5098115;28;19943;-63
2022/01/03 00:53:08;;;;;;;;;;;10.80;99.90;;;;;;5105151;28;19923;-63
2022/01/03 00:55:34;;;;;;;;;;;10.80;99.90;;;;;;5096323;28;19980;-63
2022/01/03 00:58:02;;;;;;;;;;;10.80;99.90;;;;;;5077421;28;19949;-63
2022/01/03 01:00:32;;;;;;;;;;;10.90;99.90;;;;;;5094988;27;20433;-63
2022/01/03 01:03:04;;;;;;;;;;;10.80;99.90;;;;;;5086384;27;19954;-63
2022/01/03 01:05:30;;;;;;;;;;;10.80;99.90;;;;;;5086393;28;19993;-64
2022/01/03 01:07:56;;;;;;;;;;;10.80;99.90;;;;;;5077128;28;19926;-63
2022/01/03 01:10:29;;;;;;;;;;;10.80;99.90;;;;;;5059524;28;20386;-63
2022/01/03 01:12:55;;;;;;;;;;;10.70;99.90;;;;;;5072515;28;20274;-64
2022/01/03 01:15:20;;;;;;;;;;;10.70;99.90;;;;;;5075112;28;19924;-63
2022/01/03 01:17:46;;;;;;;;;;;10.70;99.90;;;;;;5070701;28;19946;-63
2022/01/03 01:20:16;;;;;;;;;;;10.70;99.90;;;;;;5077258;28;19916;-63
2022/01/03 01:22:42;;;;;;;;;;;10.70;99.90;;;;;;5077961;28;19924;-63
2022/01/03 01:27:48;;;;;;;;;;;10.70;99.90;;;;;;5085951;28;19919;-63
2022/01/03 01:30:14;;;;;;;;;;;10.70;99.90;;;;;;5078007;28;20550;-63
2022/01/03 01:32:41;;;;;;;;;;;10.70;99.90;;;;;;5058494;28;19927;-63
2022/01/03 01:35:07;;;;;;;;;;;10.70;99.90;;;;;;5064933;28;20430;-64
2022/01/03 01:37:32;;;;;;;;;;;10.70;99.90;;;;;;5063061;28;20015;-63
2022/01/03 01:39:58;;;;;;;;;;;10.70;99.90;;;;;;5069253;28;19916;-64
2022/01/03 01:42:24;;;;;;;;;;;10.70;99.90;;;;;;5077809;28;19924;-63
2022/01/03 01:44:51;;;;;;;;;;;10.70;99.90;;;;;;5078954;28;19956;-63
2022/01/03 01:47:17;;;;;;;;;;;10.70;99.90;;;;;;5079342;28;20521;-63
2022/01/03 01:49:46;;;;;;;;;;;10.70;99.90;;;;;;5080966;28;19920;-63
2022/01/03 01:52:22;;;;;;;;;;;10.60;99.90;;;;;;5100142;27;20443;-63
2022/01/03 01:54:58;;;;;;;;;;;10.70;99.90;;;;;;5081592;28;19920;-63
2022/01/03 01:57:33;;;;;;;;;;;10.70;99.90;;;;;;5079343;28;19920;-64
2022/01/03 02:00:08;;;;;;;;;;;10.60;99.90;;;;;;5079640;28;20385;-63
2022/01/03 02:02:37;;;;;;;;;;;10.60;99.90;;;;;;5103778;27;20385;-63
2022/01/03 02:05:08;;;;;;;;;;;10.60;99.90;;;;;;5081904;28;19931;-63
2022/01/03 02:07:53;;;;;;;;;;;10.60;99.90;;;;;;5086915;28;19926;-63
2022/01/03 02:10:24;;;;;;;;;;;10.60;99.90;;;;;;5080501;28;19976;-63
2022/01/03 02:12:49;;;;;;;;;;;10.50;99.90;;;;;;5085711;28;20306;-63
2022/01/03 02:15:17;;;;;;;;;;;10.50;99.90;;;;;;5077557;28;20003;-64
2022/01/03 02:17:44;;;;;;;;;;;10.50;99.90;;;;;;5079959;28;20057;-63
2022/01/03 02:20:11;;;;;;;;;;;10.50;99.90;;;;;;5062564;28;19924;-63
2022/01/03 02:22:37;;;;;;;;;;;10.50;99.90;;;;;;5083473;28;19928;-63
2022/01/03 02:25:03;;;;;;;;;;;10.50;99.90;;;;;;5085271;28;19924;-63
2022/01/03 02:27:30;;;;;;;;;;;10.50;99.90;;;;;;5081894;28;19951;-63
2022/01/03 02:29:55;;;;;;;;;;;10.50;99.90;;;;;;5082187;28;19931;-63
2022/01/03 02:32:21;;;;;;;;;;;10.50;99.90;;;;;;5086217;28;19916;-63
2022/01/03 02:34:47;;;;;;;;;;;10.50;99.90;;;;;;5065408;28;19916;-63
2022/01/03 02:37:13;;;;;;;;;;;10.50;99.90;;;;;;5064443;28;20382;-63
2022/01/03 02:39:38;;;;;;;;;;;10.40;99.90;;;;;;5080966;28;19931;-63
2022/01/03 02:42:04;;;;;;;;;;;10.50;99.90;;;;;;5086722;27;19965;-63
2022/01/03 02:44:29;;;;;;;;;;;10.50;99.90;;;;;;5078530;28;20515;-63
2022/01/03 02:46:54;;;;;;;;;;;10.50;99.90;;;;;;5081840;28;20440;-63
2022/01/03 02:49:20;;;;;;;;;;;10.40;99.90;;;;;;5078240;28;19924;-63
2022/01/03 02:51:45;;;;;;;;;;;10.40;99.90;;;;;;5079955;28;19919;-63
2022/01/03 02:54:13;;;;;;;;;;;10.40;99.90;;;;;;5077186;28;19916;-64
2022/01/03 02:56:39;;;;;;;;;;;10.30;99.90;;;;;;5074936;28;20255;-63
2022/01/03 02:59:12;;;;;;;;;;;10.30;99.90;;;;;;5076073;28;19919;-63
2022/01/03 03:01:40;;;;;;;;;;;10.30;99.90;;;;;;5077602;28;19919;-63
2022/01/03 03:04:05;;;;;;;;;;;10.30;99.90;;;;;;5080955;28;20050;-63
2022/01/03 03:06:31;;;;;;;;;;;10.30;99.90;;;;;;5079950;28;20642;-63
2022/01/03 03:08:56;;;;;;;;;;;10.30;99.90;;;;;;5080999;28;19927;-63
2022/01/03 03:11:21;;;;;;;;;;;10.30;99.90;;;;;;5101269;27;19919;-63
2022/01/03 03:13:47;;;;;;;;;;;10.30;99.90;;;;;;5073391;28;19951;-63
2022/01/03 03:16:12;;;;;;;;;;;10.20;99.90;;;;;;5075945;28;19924;-63
2022/01/03 03:18:42;;;;;;;;;;;10.20;99.90;;;;;;5071994;28;19919;-63
2022/01/03 03:21:07;;;;;;;;;;;10.20;99.90;;;;;;5063895;28;19920;-63
2022/01/03 03:23:33;;;;;;;;;;;10.20;99.90;;;;;;5076664;28;20331;-63
2022/01/03 03:25:58;;;;;;;;;;;10.30;99.90;;;;;;5080725;28;19924;-63
2022/01/03 03:28:25;;;;;;;;;;;10.30;99.90;;;;;;5079149;28;19916;-63
2022/01/03 03:30:50;;;;;;;;;;;10.30;99.90;;;;;;5077205;28;19916;-63
2022/01/03 03:33:17;;;;;;;;;;;10.20;99.90;;;;;;5078643;28;20697;-63
2022/01/03 03:35:43;;;;;;;;;;;10.20;99.90;;;;;;5062847;28;19920;-63
2022/01/03 03:38:08;;;;;;;;;;;10.30;99.90;;;;;;5064442;28;19924;-63
2022/01/03 03:40:34;;;;;;;;;;;10.30;99.90;;;;;;5071827;28;19923;-63
2022/01/03 03:42:59;;;;;;;;;;;10.20;99.90;;;;;;5079950;28;20129;-63
2022/01/03 03:45:25;;;;;;;;;;;10.20;99.90;;;;;;5062458;28;19928;-63
2022/01/03 03:47:51;;;;;;;;;;;10.20;99.90;;;;;;5074232;28;20018;-63
2022/01/03 03:50:17;;;;;;;;;;;10.20;99.90;;;;;;5077604;28;19993;-63
2022/01/03 03:52:43;;;;;;;;;;;10.20;99.90;;;;;;5077363;28;19931;-63
2022/01/03 03:55:09;;;;;;;;;;;10.20;99.90;;;;;;5080777;28;19924;-63
2022/01/03 03:57:34;;;;;;;;;;;10.20;99.90;;;;;;5078176;28;19916;-63
2022/01/03 04:00:00;;;;;;;;;;;10.20;99.90;;;;;;5075177;28;19999;-63
2022/01/03 04:02:25;;;;;;;;;;;10.20;99.90;;;;;;5081820;28;19933;-63
2022/01/03 04:04:51;;;;;;;;;;;10.20;99.90;;;;;;5079389;28;19935;-63
2022/01/03 04:07:17;;;;;;;;;;;10.20;99.90;;;;;;5078981;28;20407;-63
2022/01/03 04:09:42;;;;;;;;;;;10.20;99.90;;;;;;5078346;28;20012;-63
2022/01/03 04:12:08;;;;;;;;;;;10.10;99.90;;;;;;5065335;28;19943;-63
2022/01/03 04:14:33;;;;;;;;;;;10.20;99.90;;;;;;5081751;28;20068;-63
2022/01/03 04:16:59;;;;;;;;;;;10.10;99.90;;;;;;5079907;28;20395;-63
2022/01/03 04:19:24;;;;;;;;;;;10.10;99.90;;;;;;5061404;28;19967;-63
2022/01/03 04:21:50;;;;;;;;;;;10.10;99.90;;;;;;5078362;28;19945;-64
2022/01/03 04:24:15;;;;;;;;;;;10.10;99.90;;;;;;5092126;27;19969;-63
2022/01/03 04:26:43;;;;;;;;;;;10.20;99.90;;;;;;5104047;27;20303;-63
2022/01/03 04:29:08;;;;;;;;;;;10.00;99.90;;;;;;5097726;27;19927;-63
2022/01/03 04:31:34;;;;;;;;;;;10.10;99.90;;;;;;5096827;27;19920;-63
2022/01/03 04:34:00;;;;;;;;;;;10.10;99.90;;;;;;5106399;27;19919;-64
2022/01/03 04:36:26;;;;;;;;;;;10.10;99.90;;;;;;5099566;27;19951;-63
2022/01/03 04:38:52;;;;;;;;;;;10.10;99.90;;;;;;5078328;28;19919;-64
2022/01/03 04:41:18;;;;;;;;;;;10.00;99.90;;;;;;5102878;27;20430;-63
2022/01/03 04:43:43;;;;;;;;;;;10.00;99.90;;;;;;5079999;28;19932;-63
2022/01/03 04:46:09;;;;;;;;;;;10.00;99.90;;;;;;5095460;28;20767;-63
2022/01/03 04:48:36;;;;;;;;;;;10.00;99.90;;;;;;5103064;28;19915;-64
2022/01/03 04:51:01;;;;;;;;;;;9.90;99.90;;;;;;5092571;27;19911;-63
2022/01/03 04:53:27;;;;;;;;;;;10.00;99.90;;;;;;5099615;27;20007;-63
2022/01/03 04:55:53;;;;;;;;;;;9.90;99.90;;;;;;5098677;27;20251;-63
2022/01/03 04:58:19;;;;;;;;;;;10.00;99.90;;;;;;5094232;27;19915;-64
2022/01/03 05:00:44;;;;;;;;;;;10.00;99.90;;;;;;5102157;27;20596;-63
2022/01/03 05:03:10;;;;;;;;;;;10.00;99.90;;;;;;5095970;27;19969;-64
2022/01/03 05:05:35;;;;;;;;;;;10.00;99.90;;;;;;5094939;27;19980;-63
2022/01/03 05:08:01;;;;;;;;;;;10.00;99.90;;;;;;5100394;27;19959;-63
2022/01/03 05:10:26;;;;;;;;;;;10.00;99.90;;;;;;5081180;28;19945;-63
2022/01/03 05:12:52;;;;;;;;;;;10.00;99.90;;;;;;5091620;28;20809;-63
2022/01/03 05:15:17;;;;;;;;;;;10.00;99.90;;;;;;5092382;28;19916;-63
2022/01/03 05:17:43;;;;;;;;;;;10.00;99.90;;;;;;5096015;28;19939;-63
2022/01/03 05:20:08;;;;;;;;;;;10.00;99.90;;;;;;5095993;27;19919;-63
2022/01/03 05:22:34;;;;;;;;;;;10.10;99.90;;;;;;5095406;28;20359;-63
2022/01/03 05:24:59;;;;;;;;;;;10.10;99.90;;;;;;5075294;28;20199;-63
2022/01/03 05:27:25;;;;;;;;;;;10.10;99.90;;;;;;5078378;27;20283;-63
2022/01/03 05:29:50;;;;;;;;;;;10.20;99.90;;;;;;5093323;28;19965;-63
2022/01/03 05:32:16;;;;;;;;;;;10.10;99.90;;;;;;5096733;27;19920;-63
2022/01/03 05:34:41;;;;;;;;;;;10.10;99.90;;;;;;5082238;28;19926;-63
2022/01/03 05:37:07;;;;;;;;;;;10.10;99.90;;;;;;5097774;27;19977;-63
2022/01/03 05:39:32;;;;;;;;;;;10.00;99.90;;;;;;5099707;27;19928;-63
2022/01/03 05:41:58;;;;;;;;;;;10.10;99.90;;;;;;5093692;28;19923;-63
2022/01/03 05:44:25;;;;;;;;;;;10.10;99.90;;;;;;5095561;27;20381;-63
2022/01/03 05:46:50;;;;;;;;;;;10.10;99.90;;;;;;5090236;28;19924;-63
2022/01/03 05:49:16;;;;;;;;;;;10.10;99.90;;;;;;5098527;27;19920;-63
2022/01/03 05:51:41;;;;;;;;;;;10.00;99.90;;;;;;5102736;28;19920;-63
2022/01/03 05:54:07;;;;;;;;;;;10.00;99.90;;;;;;5093817;27;20099;-63
2022/01/03 05:56:32;;;;;;;;;;;10.00;99.90;;;;;;5103809;28;20476;-63
2022/01/03 05:58:58;;;;;;;;;;;10.00;99.90;;;;;;5101407;28;19989;-63
2022/01/03 06:01:24;;;;;;;;;;;10.00;99.90;;;;;;5099978;28;19930;-64
2022/01/03 06:03:59;;;;;;;;;;;10.00;99.90;;;;;;5097812;27;20498;-63
2022/01/03 06:09:09;;;;;;;;;;;10.00;99.90;;;;;;5098904;28;19998;-63
2022/01/03 06:11:35;;;;;;;;;;;10.00;99.90;;;;;;5101258;27;19949;-63
2022/01/03 06:14:00;;;;;;;;;;;10.00;99.90;;;;;;5100310;27;19969;-63
2022/01/03 06:16:25;;;;;;;;;;;10.00;99.90;;;;;;5101144;27;20252;-63
2022/01/03 06:18:51;;;;;;;;;;;10.00;99.90;;;;;;5099524;27;20030;-63
2022/01/03 06:21:16;;;;;;;;;;;10.00;99.90;;;;;;5082125;28;19919;-63
2022/01/03 06:23:43;;;;;;;;;;;10.00;99.90;;;;;;5098920;27;19923;-64
2022/01/03 06:26:08;;;;;;;;;;;10.10;99.90;;;;;;5100439;28;19920;-63
2022/01/03 06:28:33;;;;;;;;;;;10.10;99.90;;;;;;5099024;27;19926;-63
2022/01/03 06:30:59;;;;;;;;;;;10.10;99.90;;;;;;5085410;28;19916;-63
2022/01/03 06:33:24;;;;;;;;;;;10.20;99.90;;;;;;5104534;27;19957;-63
2022/01/03 06:35:50;;;;;;;;;;;10.10;99.90;;;;;;5084128;27;19954;-63
2022/01/03 06:38:15;;;;;;;;;;;10.10;99.90;;;;;;5096380;27;19927;-63
2022/01/03 06:40:41;;;;;;;;;;;10.10;99.90;;;;;;5103721;27;19922;-63
2022/01/03 06:43:06;;;;;;;;;;;10.10;99.90;;;;;;5098837;27;19923;-63
2022/01/03 06:45:32;;;;;;;;;;;10.10;99.90;;;;;;5102546;27;19919;-63
2022/01/03 06:47:57;;;;;;;;;;;10.10;99.90;;;;;;5075285;28;19920;-63
2022/01/03 06:50:23;;;;;;;;;;;10.10;99.90;;;;;;5097959;28;20052;-63
2022/01/03 06:52:48;;;;;;;;;;;10.20;99.90;;;;;;5095208;27;19924;-63
2022/01/03 06:55:14;;;;;;;;;;;10.10;99.90;;;;;;5077369;27;19916;-63
2022/01/03 06:57:40;;;;;;;;;;;10.20;99.90;;;;;;5097486;27;20541;-63
2022/01/03 07:00:06;;;;;;;;;;;10.20;99.90;;;;;;5101965;27;20025;-63
2022/01/03 07:02:32;;;;;;;;;;;10.20;99.90;;;;;;5080749;28;19979;-63
2022/01/03 07:04:57;;;;;;;;;;;10.20;99.90;;;;;;5095299;27;19965;-63
2022/01/03 07:07:23;;;;;;;;;;;10.20;99.90;;;;;;5096295;28;20906;-63
2022/01/03 07:09:48;;;;;;;;;;;10.20;99.90;;;;;;5100314;27;20434;-63
2022/01/03 07:12:14;;;;;;;;;;;10.10;99.90;;;;;;5092249;27;19939;-63
2022/01/03 07:19:54;;;;;;;;;;;10.10;99.90;;;;;;5100032;27;19927;-63
2022/01/03 07:22:20;;;;;;;;;;;10.20;99.90;;;;;;5098164;27;19927;-63
2022/01/03 07:24:46;;;;;;;;;;;10.20;99.90;;;;;;5099625;27;19911;-63
2022/01/03 07:27:12;;;;;;;;;;;10.20;99.90;;;;;;5092377;27;19955;-63
2022/01/03 07:29:38;;;;;;;;;;;10.10;99.90;;;;;;5097111;27;20284;-63
2022/01/03 07:32:04;;;;;;;;;;;10.10;99.90;;;;;;5096379;27;19978;-63
2022/01/03 07:34:30;;;;;;;;;;;10.10;99.90;;;;;;5096393;27;19928;-63
2022/01/03 07:36:55;;;;;;;;;;;10.20;99.90;;;;;;5094983;27;19972;-62
2022/01/03 07:39:21;;;;;;;;;;;10.10;99.90;;;;;;5101676;27;19924;-61
2022/01/03 07:41:46;;;;;;;;;;;10.20;99.90;;;;;;5080582;28;19938;-65
2022/01/03 07:44:12;;;;;;;;;;;10.20;99.90;;;;;;5097360;27;20641;-66
2022/01/03 07:46:38;;;;;;;;;;;10.10;99.90;;;;;;5095833;27;19964;-64
2022/01/03 07:49:04;;;;;;;;;;;10.10;99.90;;;;;;5098378;27;19924;-66
2022/01/03 07:51:29;;;;;;;;;;;10.20;99.90;;;;;;5080976;28;20681;-67
2022/01/03 07:53:55;;;;;;;;;;;10.20;99.90;;;;;;5079070;28;19916;-67
2022/01/03 07:56:20;;;;;;;;;;;10.20;99.90;;;;;;5090166;27;20454;-67
2022/01/03 07:58:46;;;;;;;;;;;10.20;99.90;;;;;;5084369;28;19916;-67
2022/01/03 08:01:12;;;;;;;;;;;10.30;99.90;;;;;;5095945;27;19920;-67
2022/01/03 08:03:38;;;;;;;;;;;10.20;99.90;;;;;;5105088;27;19916;-67
2022/01/03 08:06:04;;;;;;;;;;;10.10;99.90;;;;;;5106884;27;19928;-67
2022/01/03 08:08:29;;;;;;;;;;;10.20;99.90;;;;;;5084994;27;19984;-67
2022/01/03 08:10:55;;;;;;;;;;;10.20;99.90;;;;;;5093147;27;20452;-67
2022/01/03 08:13:20;;;;;;;;;;;10.20;99.90;;;;;;5081134;27;19956;-67
2022/01/03 08:15:46;;;;;;;;;;;10.20;99.90;;;;;;5086609;27;19915;-67
2022/01/03 08:18:12;;;;;;;;;;;10.20;99.90;;;;;;5077592;27;19939;-66
2022/01/03 08:20:38;;;;;;;;;;;10.20;99.90;;;;;;5079112;28;19916;-66
2022/01/03 08:23:03;;;;;;;;;;;10.20;99.90;;;;;;5083575;28;19927;-66
2022/01/03 08:25:31;;;;;;;;;;;10.30;99.90;;;;;;5078000;28;19931;-67
2022/01/03 08:27:57;;;;;;;;;;;10.30;99.90;;;;;;5084282;28;20545;-67
2022/01/03 08:30:22;;;;;;;;;;;10.30;99.90;;;;;;5075187;28;20236;-68
2022/01/03 08:32:48;;;;;;;;;;;10.40;99.90;;;;;;5074986;28;19927;-67
2022/01/03 08:35:13;;;;;;;;;;;10.40;99.90;;;;;;5078603;28;19920;-66
2022/01/03 08:37:39;;;;;;;;;;;10.30;99.90;;;;;;5063206;28;19923;-67
2022/01/03 08:40:06;;;;;;;;;;;10.40;99.90;;;;;;5070493;28;19923;-66
2022/01/03 08:42:32;;;;;;;;;;;10.40;99.90;;;;;;5076221;28;20382;-67
2022/01/03 08:44:58;;;;;;;;;;;10.40;99.90;;;;;;5080681;28;20168;-67
2022/01/03 08:47:23;;;;;;;;;;;10.40;99.90;;;;;;5078027;27;19959;-65
2022/01/03 08:49:49;;;;;;;;;;;10.30;99.90;;;;;;5083530;27;20350;-67
2022/01/03 08:52:15;;;;;;;;;;;10.40;99.90;;;;;;5085588;28;19932;-67
2022/01/03 08:54:41;;;;;;;;;;;10.40;99.90;;;;;;5078182;28;19924;-67
2022/01/03 08:57:06;;;;;;;;;;;10.40;99.90;;;;;;5075337;28;20027;-66
2022/01/03 08:59:32;;;;;;;;;;;10.50;99.90;;;;;;5065662;28;20080;-67
2022/01/03 09:01:57;;;;;;;;;;;10.40;99.90;;;;;;5063591;28;19921;-67
2022/01/03 09:04:23;;;;;;;;;;;10.50;99.90;;;;;;5071449;28;19958;-67
2022/01/03 09:06:50;;;;;;;;;;;10.50;99.90;;;;;;5055537;28;20022;-67
2022/01/03 09:09:15;;;;;;;;;;;10.40;99.90;;;;;;5078774;28;20394;-68
2022/01/03 09:11:41;;;;;;;;;;;10.50;99.90;;;;;;5080351;28;19958;-67
2022/01/03 09:14:06;;;;;;;;;;;10.50;99.90;;;;;;5072283;28;19919;-67
2022/01/03 09:16:32;;;;;;;;;;;10.50;99.90;;;;;;5073741;28;19999;-66
2022/01/03 09:18:58;;;;;;;;;;;10.60;99.90;;;;;;5078001;28;20006;-67
2022/01/03 09:21:23;;;;;;;;;;;10.50;99.90;;;;;;5076331;28;19920;-66
2022/01/03 09:23:53;;;;;;;;;;;10.60;99.90;;;;;;5067445;28;19999;-67
2022/01/03 09:29:03;;;;;;;;;;;10.60;99.90;;;;;;5069496;28;19923;-67
2022/01/03 09:31:30;;;;;;;;;;;10.60;99.90;;;;;;5054918;28;19920;-66
2022/01/03 09:33:56;;;;;;;;;;;10.60;99.90;;;;;;5074031;28;19916;-67
2022/01/03 09:36:22;;;;;;;;;;;10.60;99.90;;;;;;5073497;28;19920;-67
2022/01/03 09:38:47;;;;;;;;;;;10.70;99.90;;;;;;5061833;28;19926;-67
2022/01/03 09:41:13;;;;;;;;;;;10.60;99.90;;;;;;5076152;28;19920;-68
2022/01/03 09:43:47;;;;;;;;;;;10.70;99.90;;;;;;5080737;28;20336;-67
2022/01/03 09:46:17;;;;;;;;;;;10.70;99.90;;;;;;5059246;28;19950;-68
2022/01/03 09:48:44;;;;;;;;;;;10.80;99.90;;;;;;5082767;28;19912;-68
2022/01/03 09:51:11;;;;;;;;;;;10.90;99.90;;;;;;5076615;28;20291;-69
2022/01/03 09:53:38;;;;;;;;;;;10.90;99.90;;;;;;5075745;28;20392;-67
2022/01/03 09:56:05;;;;;;;;;;;10.90;99.90;;;;;;5060727;28;20311;-68
2022/01/03 09:58:31;;;;;;;;;;;10.90;99.90;;;;;;5061751;28;19977;-67
2022/01/03 10:01:00;;;;;;;;;;;10.90;99.90;;;;;;5075894;28;19946;-66
2022/01/03 10:03:26;;;;;;;;;;;10.90;99.90;;;;;;5071518;28;20435;-68
2022/01/03 10:05:52;;;;;;;;;;;10.90;99.90;;;;;;5074851;28;20286;-68
2022/01/03 10:08:18;;;;;;;;;;;10.90;99.90;;;;;;5078589;28;19924;-68
2022/01/03 10:10:44;;;;;;;;;;;10.90;99.90;;;;;;5077197;28;19920;-67
2022/01/03 10:13:10;;;;;;;;;;;10.90;99.90;;;;;;5083241;28;19965;-67
2022/01/03 10:15:36;;;;;;;;;;;11.00;99.90;;;;;;5083308;28;19916;-68
2022/01/03 10:18:02;;;;;;;;;;;11.00;99.90;;;;;;5077216;28;20191;-67
2022/01/03 10:20:28;;;;;;;;;;;11.00;99.90;;;;;;5095919;27;20026;-67
2022/01/03 10:23:06;;;;;;;;;;;11.10;99.90;;;;;;5092796;28;19924;-68
2022/01/03 10:25:33;;;;;;;;;;;11.10;99.90;;;;;;5102982;27;20420;-67
2022/01/03 10:28:03;;;;;;;;;;;11.10;99.90;;;;;;5097916;27;19923;-68
2022/01/03 10:30:45;;;;;;;;;;;11.00;99.90;;;;;;5098391;27;19967;-67
2022/01/03 10:33:15;;;;;;;;;;;11.00;99.90;;;;;;5098906;28;19927;-67
2022/01/03 10:35:41;;;;;;;;;;;11.00;99.90;;;;;;5102066;27;19939;-68
2022/01/03 10:38:08;;;;;;;;;;;11.00;99.90;;;;;;5098813;27;20322;-66
2022/01/03 10:40:34;;;;;;;;;;;11.10;99.90;;;;;;5095041;28;20252;-68
2022/01/03 10:43:13;;;;;;;;;;;11.10;99.90;;;;;;5098792;27;19978;-68
2022/01/03 10:45:39;;;;;;;;;;;11.20;99.90;;;;;;5082239;28;19920;-66
2022/01/03 10:48:25;;;;;;;;;;;11.30;99.90;;;;;;5098874;27;19916;-67
2022/01/03 10:50:51;;;;;;;;;;;11.30;99.90;;;;;;5092853;27;19919;-67
2022/01/03 10:53:30;;;;;;;;;;;11.40;99.90;;;;;;5076164;28;20330;-65
2022/01/03 10:55:55;;;;;;;;;;;11.40;99.90;;;;;;5088619;27;20020;-67
2022/01/03 10:58:30;;;;;;;;;;;11.50;99.90;;;;;;5075160;28;20501;-68
2022/01/03 11:00:56;;;;;;;;;;;11.50;99.90;;;;;;5076560;28;19920;-67
2022/01/03 11:03:40;;;;;;;;;;;11.50;99.90;;;;;;5081457;28;19922;-68
2022/01/03 11:06:21;;;;;;;;;;;11.50;99.90;;;;;;5060615;28;20362;-67
2022/01/03 11:11:52;;;;;;;;;;;11.50;99.90;;;;;;4973860;28;19961;-67
2022/01/03 11:14:30;;;;;;;;;;;11.40;99.90;;;;;;4976551;28;19924;-68
2022/01/03 11:16:55;;;;;;;;;;;11.50;99.90;;;;;;5035151;27;19920;-68
2022/01/03 11:19:37;;;;;;;;;;;11.60;99.90;;;;;;5077535;28;19920;-68
2022/01/03 11:22:02;;;;;;;;;;;11.60;99.90;;;;;;5077206;28;19917;-65
2022/01/03 11:24:28;;;;;;;;;;;11.50;99.90;;;;;;5055670;28;19920;-68
2022/01/03 11:26:55;;;;;;;;;;;11.50;99.90;;;;;;5072891;28;19978;-68
2022/01/03 11:29:20;;;;;;;;;;;11.50;99.90;;;;;;5077643;28;20005;-66
2022/01/03 11:31:49;;;;;;;;;;;11.60;99.90;;;;;;5078530;28;20213;-68
2022/01/03 11:34:14;;;;;;;;;;;11.70;99.90;;;;;;5056610;28;20421;-67
2022/01/03 11:36:40;;;;;;;;;;;11.60;99.90;;;;;;5057021;28;19912;-67
2022/01/03 11:39:09;;;;;;;;;;;11.70;99.90;;;;;;5076231;27;19958;-67
2022/01/03 11:41:38;;;;;;;;;;;11.60;99.90;;;;;;5107400;27;19920;-67
2022/01/03 11:44:04;;;;;;;;;;;11.60;99.90;;;;;;5105624;27;19919;-68
2022/01/03 11:46:29;;;;;;;;;;;11.70;99.90;;;;;;5089884;27;19923;-68
2022/01/03 11:48:56;;;;;;;;;;;11.70;99.90;;;;;;5111804;27;19915;-67
2022/01/03 11:51:22;;;;;;;;;;;11.70;99.90;;;;;;5091840;27;19924;-68
2022/01/03 11:53:49;;;;;;;;;;;11.70;99.90;;;;;;5104073;27;19920;-68
2022/01/03 11:56:18;;;;;;;;;;;11.60;99.90;;;;;;5108133;27;19919;-65
2022/01/03 12:04:24;;;;;;;;;;;11.70;99.90;;;;;;5074317;28;21917;-68
2022/01/03 12:07:01;;;;;;;;;;;11.70;99.90;;;;;;5074375;28;19920;-68
2022/01/03 12:09:29;;;;;;;;;;;11.70;99.90;;;;;;5100768;27;20014;-68
2022/01/03 12:11:54;;;;;;;;;;;11.70;99.90;;;;;;5083827;27;19915;-67
2022/01/03 12:14:21;;;;;;;;;;;11.70;99.90;;;;;;5095319;27;20349;-67
2022/01/03 12:16:48;;;;;;;;;;;11.60;99.90;;;;;;5099698;27;20284;-68
2022/01/03 12:19:27;;;;;;;;;;;11.60;99.90;;;;;;5091067;27;20395;-67
2022/01/03 12:21:56;;;;;;;;;;;11.50;99.90;;;;;;5096059;27;19984;-68
2022/01/03 12:24:40;;;;;;;;;;;11.40;99.90;;;;;;5091757;28;19930;-66
2022/01/03 12:27:12;;;;;;;;;;;11.40;99.90;;;;;;5099275;27;19919;-65
2022/01/03 12:29:49;;;;;;;;;;;11.30;99.90;;;;;;5097152;27;19915;-67
2022/01/03 12:32:15;;;;;;;;;;;11.30;99.90;;;;;;5077755;28;19916;-67
2022/01/03 12:34:41;;;;;;;;;;;11.20;99.90;;;;;;5099746;27;19920;-66
2022/01/03 12:37:25;;;;;;;;;;;11.30;99.90;;;;;;5098774;27;19921;-67
2022/01/03 12:40:05;;;;;;;;;;;11.30;99.90;;;;;;5100519;27;19927;-66
2022/01/03 12:42:52;;;;;;;;;;;11.10;99.90;;;;;;5098968;28;19930;-65
2022/01/03 12:45:30;;;;;;;;;;;11.10;99.90;;;;;;5098358;27;20566;-67
2022/01/03 12:48:08;;;;;;;;;;;11.10;99.90;;;;;;5101304;27;19989;-68
2022/01/03 12:50:34;;;;;;;;;;;11.20;99.90;;;;;;5104838;27;19916;-66
2022/01/03 12:53:01;;;;;;;;;;;11.10;99.90;;;;;;5099616;27;19922;-66
2022/01/03 12:55:38;;;;;;;;;;;11.00;99.90;;;;;;5091614;28;20040;-66
2022/01/03 12:58:04;;;;;;;;;;;10.90;99.90;;;;;;5094254;27;20041;-66
2022/01/03 13:00:39;;;;;;;;;;;10.90;99.90;;;;;;5075546;28;19962;-66
2022/01/03 13:03:25;;;;;;;;;;;10.90;99.90;;;;;;5089343;28;20277;-67
2022/01/03 13:06:15;;;;;;;;;;;10.90;99.90;;;;;;5074801;28;19923;-67
2022/01/03 13:08:42;;;;;;;;;;;10.90;99.90;;;;;;5089810;28;19938;-67
2022/01/03 13:11:08;;;;;;;;;;;11.00;99.90;;;;;;5071855;28;20371;-65
2022/01/03 13:13:38;;;;;;;;;;;11.00;99.90;;;;;;5074164;28;20390;-68
2022/01/03 13:16:20;;;;;;;;;;;11.00;99.90;;;;;;5088403;28;20082;-67
2022/01/03 13:18:49;;;;;;;;;;;10.90;99.90;;;;;;5088458;28;20749;-67
2022/01/03 13:21:16;;;;;;;;;;;10.80;99.90;;;;;;5089719;28;19916;-67
2022/01/03 13:24:01;;;;;;;;;;;10.80;99.90;;;;;;5091363;27;19920;-66
2022/01/03 13:26:30;;;;;;;;;;;10.80;99.90;;;;;;5090714;27;19924;-66
2022/01/03 13:28:57;;;;;;;;;;;10.80;99.90;;;;;;5090356;27;19965;-66
2022/01/03 13:31:22;;;;;;;;;;;10.80;99.90;;;;;;5088781;27;19924;-68
2022/01/03 13:33:55;;;;;;;;;;;10.90;99.90;;;;;;5091626;27;19940;-68
2022/01/03 13:36:20;;;;;;;;;;;10.80;99.90;;;;;;5093319;28;19916;-66
2022/01/03 13:38:46;;;;;;;;;;;10.80;99.90;;;;;;5075584;28;19930;-67
2022/01/03 13:41:16;;;;;;;;;;;10.80;99.90;;;;;;5092936;27;19911;-65
2022/01/03 13:43:47;;;;;;;;;;;10.80;99.90;;;;;;5094465;27;19999;-66
2022/01/03 13:49:14;;;;;;;;;;;10.60;99.90;;;;;;5090751;27;19922;-66
2022/01/03 13:51:52;;;;;;;;;;;10.60;99.90;;;;;;5089337;27;19977;-64
2022/01/03 13:54:26;;;;;;;;;;;10.60;99.90;;;;;;5090854;27;19912;-67
2022/01/03 13:56:53;;;;;;;;;;;10.50;99.90;;;;;;5091728;27;20002;-67
2022/01/03 13:59:20;;;;;;;;;;;10.60;99.90;;;;;;5088999;27;20329;-66
2022/01/03 14:01:46;;;;;;;;;;;10.60;99.90;;;;;;5072203;27;19927;-66
2022/01/03 14:04:11;;;;;;;;;;;10.60;99.90;;;;;;5092073;27;19916;-65
2022/01/03 14:06:37;;;;;;;;;;;10.60;99.90;;;;;;5090262;28;19923;-67
2022/01/03 14:09:13;;;;;;;;;;;10.60;99.90;;;;;;5091371;27;19919;-67
2022/01/03 14:11:38;;;;;;;;;;;10.60;99.90;;;;;;5092982;27;20820;-66
2022/01/03 14:14:10;;;;;;;;;;;10.60;99.90;;;;;;5091373;27;19927;-67
2022/01/03 14:16:55;;;;;;;;;;;10.70;99.90;;;;;;5089503;27;20272;-67
2022/01/03 14:19:25;;;;;;;;;;;10.70;99.90;;;;;;5092590;27;20003;-67
2022/01/03 14:21:51;;;;;;;;;;;10.70;99.90;;;;;;5088038;28;19986;-66
2022/01/03 14:24:17;;;;;;;;;;;10.70;99.90;;;;;;5091848;27;19920;-65
2022/01/03 14:26:53;;;;;;;;;;;10.60;99.90;;;;;;5072967;28;20548;-66
2022/01/03 14:29:19;;;;;;;;;;;10.60;99.90;;;;;;5093671;27;19990;-67
2022/01/03 14:31:57;;;;;;;;;;;10.60;99.90;;;;;;5092028;28;20002;-67
2022/01/03 14:34:24;;;;;;;;;;;10.60;99.90;;;;;;5091903;27;20510;-67
2022/01/03 14:36:51;;;;;;;;;;;10.60;99.90;;;;;;5092426;27;20080;-67
2022/01/03 14:39:17;;;;;;;;;;;10.60;99.90;;;;;;5089068;27;19924;-66
2022/01/03 14:41:43;;;;;;;;;;;10.40;99.90;;;;;;5091068;27;19927;-66
2022/01/03 14:44:09;;;;;;;;;;;;;;;;;;5090205;27;19919;-65
2022/01/03 14:46:38;;;;;;;;;;;10.20;99.90;;;;;;5088370;27;19931;-66